This is the latest recevied weather packets stored in our database for station/object N4OOJ-13. If no packets are shown the sender has not sent any weather packets the latest 10 day(s).
| Time | Temp. | Humidity | Pressure | Rain* | Wind** | Luminosity | Snow |
|---|---|---|---|---|---|---|---|
| 1787575821 | 28.33° C | 95% | 1017 hPa | 0 mm | - | - | - |
| 1787575220 | 27.22° C | 99% | 1016.6 hPa | 0 mm | - | - | - |
| 1787574619 | 26.67° C | 99% | 1016.5 hPa | 0 mm | - | - | - |
| 1787574025 | 25.56° C | 99% | 1016.3 hPa | 0 mm | - | - | - |
| 1787573420 | 25° C | 99% | 1016.3 hPa | 0 mm | - | - | - |
| 1787572821 | 25° C | 99% | 1016.2 hPa | 0 mm | - | - | - |
| 1787572232 | 25° C | 99% | 1016.1 hPa | 0 mm | - | - | - |
| 1787571627 | 25° C | 99% | 1016.2 hPa | 0 mm | - | - | - |
| 1787571022 | 24.44° C | 99% | 1016 hPa | 0 mm | - | - | - |
| 1787570422 | 23.89° C | 99% | 1016 hPa | 0 mm | - | - | - |
| 1787569816 | 23.89° C | 99% | 1016 hPa | 0 mm | - | - | - |
| 1787569233 | 23.89° C | 99% | 1015.8 hPa | 0 mm | - | - | - |
| 1787568633 | 23.89° C | 99% | 1015.6 hPa | 0 mm | - | - | - |
| 1787568029 | 23.89° C | 99% | 1015.6 hPa | 0 mm | - | - | - |
| 1787567423 | 23.89° C | 99% | 1015.6 hPa | 0 mm | - | - | - |
| 1787566817 | 23.89° C | 99% | 1015.6 hPa | 0 mm | - | - | - |
| 1787566222 | 24.44° C | 99% | 1015.5 hPa | 0 mm | - | - | - |
| 1787565621 | 24.44° C | 99% | 1015.5 hPa | 0 mm | - | - | - |
| 1787565030 | 24.44° C | 99% | 1015.5 hPa | 0 mm | - | - | - |
| 1787564429 | 24.44° C | 99% | 1015.5 hPa | 0 mm | - | - | - |
| 1787563819 | 24.44° C | 99% | 1015.3 hPa | 0 mm | - | - | - |
| 1787563218 | 24.44° C | 99% | 1015.2 hPa | 0 mm | - | - | - |
| 1787562620 | 24.44° C | 99% | 1015.2 hPa | 0 mm | - | - | - |
| 1787562017 | 24.44° C | 99% | 1015.2 hPa | 0 mm | - | - | - |
| 1787561423 | 24.44° C | 99% | 1015.2 hPa | 0 mm | - | - | - |
* Rain latest hour (hover to see other rain measurements)
** Current wind speed in m/s (hover to see current wind gust speed)